createdAt,value
2018-12-13T00:01:40.837Z,71.10
2018-12-13T00:04:10.224Z,71.00
2018-12-13T00:06:39.629Z,71.00
2018-12-13T00:09:09.787Z,71.10
2018-12-13T00:11:38.789Z,71.00
2018-12-13T00:14:08.073Z,71.00
2018-12-13T00:16:37.370Z,71.00
2018-12-13T00:19:06.512Z,71.00
2018-12-13T00:21:35.808Z,71.00
2018-12-13T00:24:05.016Z,71.10
2018-12-13T00:26:34.332Z,71.10
2018-12-13T00:29:04.131Z,71.20
2018-12-13T00:31:33.551Z,71.20
2018-12-13T00:34:02.595Z,71.30
2018-12-13T00:36:31.789Z,71.40
2018-12-13T00:39:06.239Z,71.40
2018-12-13T00:41:36.460Z,71.50
2018-12-13T00:44:09.222Z,71.50
2018-12-13T00:46:38.408Z,71.60
2018-12-13T00:49:08.306Z,71.60
2018-12-13T00:51:37.622Z,71.70
2018-12-13T00:54:06.972Z,71.60
2018-12-13T00:56:36.199Z,71.50
2018-12-13T00:59:05.461Z,71.40
2018-12-13T01:01:35.292Z,71.20
2018-12-13T01:04:04.783Z,71.20
2018-12-13T01:06:34.171Z,71.10
2018-12-13T01:09:03.728Z,71.10
2018-12-13T01:11:32.831Z,71.00
2018-12-13T01:14:02.054Z,70.90
2018-12-13T01:16:31.186Z,70.90
2018-12-13T01:19:00.513Z,71.10
2018-12-13T01:21:30.877Z,71.90
2018-12-13T01:24:00.094Z,71.20
2018-12-13T01:26:30.461Z,71.30
2018-12-13T01:28:59.718Z,71.30
2018-12-13T01:31:29.015Z,71.30
2018-12-13T01:33:58.900Z,71.40
2018-12-13T01:36:28.229Z,71.50
2018-12-13T01:38:57.426Z,71.50
2018-12-13T01:41:27.423Z,71.50
2018-12-13T01:43:56.841Z,71.50
2018-12-13T01:46:25.884Z,71.90
2018-12-13T01:48:56.148Z,71.50
2018-12-13T01:51:25.279Z,71.60
2018-12-13T01:53:54.422Z,71.60
2018-12-13T01:56:23.743Z,71.60
2018-12-13T01:58:52.992Z,71.60
2018-12-13T02:01:22.113Z,71.50
2018-12-13T02:03:51.349Z,71.50
2018-12-13T02:06:20.481Z,71.40
2018-12-13T02:08:49.666Z,71.20
2018-12-13T02:11:19.056Z,71.20
2018-12-13T02:13:48.682Z,71.20
2018-12-13T02:16:17.823Z,71.10
2018-12-13T02:18:47.007Z,71.10
2018-12-13T02:21:16.016Z,71.10
2018-12-13T02:23:45.057Z,71.00
2018-12-13T02:26:14.190Z,71.00
2018-12-13T02:28:43.401Z,71.00
2018-12-13T02:31:12.733Z,71.00
2018-12-13T02:33:41.937Z,70.90
2018-12-13T02:36:11.159Z,70.80
2018-12-13T02:38:40.387Z,70.60
2018-12-13T02:41:09.734Z,70.60
2018-12-13T02:43:39.775Z,70.60
2018-12-13T02:46:08.904Z,70.40
2018-12-13T02:48:38.135Z,70.40
2018-12-13T02:51:07.509Z,70.30
2018-12-13T02:53:36.572Z,70.20
2018-12-13T02:56:06.148Z,70.20
2018-12-13T02:58:35.213Z,70.00
2018-12-13T03:01:04.402Z,69.80
2018-12-13T03:03:34.235Z,69.90
2018-12-13T03:06:03.450Z,69.80
2018-12-13T03:08:32.613Z,69.80
2018-12-13T03:11:01.752Z,69.80
2018-12-13T03:13:30.932Z,70.60
2018-12-13T03:16:00.966Z,69.80
2018-12-13T03:18:30.269Z,69.80
2018-12-13T03:20:59.361Z,69.80
2018-12-13T03:23:29.269Z,69.70
2018-12-13T03:25:58.433Z,69.60
2018-12-13T03:28:27.498Z,69.50
2018-12-13T03:30:56.525Z,69.70
2018-12-13T03:33:25.580Z,69.40
2018-12-13T03:35:54.505Z,69.30
2018-12-13T03:38:23.815Z,69.40
2018-12-13T03:40:52.949Z,69.30
2018-12-13T03:43:23.181Z,69.20
2018-12-13T03:45:52.246Z,69.20
2018-12-13T03:48:21.493Z,69.20
2018-12-13T03:50:50.706Z,69.20
2018-12-13T03:53:19.777Z,69.20
2018-12-13T03:55:48.950Z,69.10
2018-12-13T03:58:18.105Z,68.90
2018-12-13T04:00:47.285Z,68.80
2018-12-13T04:03:16.493Z,68.70
2018-12-13T04:05:45.822Z,68.50
2018-12-13T04:08:15.194Z,68.50
2018-12-13T04:10:44.410Z,68.30
2018-12-13T04:13:13.684Z,68.20
2018-12-13T04:15:42.645Z,68.00
2018-12-13T04:18:11.942Z,67.90
2018-12-13T04:20:41.012Z,67.80
2018-12-13T04:23:10.644Z,67.80
2018-12-13T04:25:39.717Z,67.80
2018-12-13T04:28:08.729Z,67.80
2018-12-13T04:30:37.660Z,67.80
2018-12-13T04:33:07.782Z,67.80
2018-12-13T04:35:36.851Z,67.90
2018-12-13T04:38:06.091Z,67.80
2018-12-13T04:40:35.144Z,68.00
2018-12-13T04:43:04.358Z,67.80
2018-12-13T04:45:33.445Z,67.50
2018-12-13T04:48:03.971Z,67.30
2018-12-13T04:50:33.098Z,67.50
2018-12-13T04:53:02.180Z,67.50
2018-12-13T04:55:31.540Z,67.50
2018-12-13T04:58:00.734Z,67.10
2018-12-13T05:00:29.867Z,66.80
2018-12-13T05:02:59.022Z,66.10
2018-12-13T05:05:28.274Z,66.30
2018-12-13T05:07:57.253Z,66.20
2018-12-13T05:10:37.412Z,66.00
2018-12-13T05:13:06.466Z,65.90
2018-12-13T05:15:35.495Z,65.60
2018-12-13T05:18:04.657Z,65.40
2018-12-13T05:20:34.365Z,65.50
2018-12-13T05:23:03.567Z,65.30
2018-12-13T05:25:32.721Z,65.20
2018-12-13T05:28:02.117Z,65.20
2018-12-13T05:30:31.499Z,65.30
2018-12-13T05:33:00.698Z,65.40
2018-12-13T05:35:30.524Z,65.80
2018-12-13T05:37:59.887Z,65.50
2018-12-13T05:40:29.249Z,65.50
2018-12-13T05:42:58.474Z,65.50
2018-12-13T05:45:27.734Z,65.50
2018-12-13T05:47:56.708Z,65.40
2018-12-13T05:50:25.807Z,65.40
2018-12-13T05:52:55.015Z,65.30
2018-12-13T05:55:24.378Z,65.20
2018-12-13T05:57:53.441Z,65.20
2018-12-13T06:00:23.239Z,65.10
2018-12-13T06:02:52.217Z,64.80
2018-12-13T06:05:21.318Z,64.70
2018-12-13T06:07:54.953Z,64.80
2018-12-13T06:10:22.676Z,65.00
2018-12-13T06:12:52.172Z,65.10
2018-12-13T06:15:21.318Z,65.10
2018-12-13T06:17:50.721Z,65.10
2018-12-13T06:20:20.042Z,65.10
2018-12-13T06:22:50.105Z,65.10
2018-12-13T06:25:20.133Z,65.20
2018-12-13T06:27:50.719Z,66.00
2018-12-13T06:30:19.905Z,65.30
2018-12-13T06:32:48.993Z,65.40
2018-12-13T06:35:18.185Z,65.40
2018-12-13T06:37:48.328Z,65.50
2018-12-13T06:40:17.445Z,65.60
2018-12-13T06:42:46.535Z,65.70
2018-12-13T06:45:23.198Z,66.40
2018-12-13T06:47:57.411Z,65.80
2018-12-13T06:50:36.026Z,65.90
2018-12-13T06:53:05.291Z,65.90
2018-12-13T06:55:34.557Z,65.80
2018-12-13T06:58:04.549Z,65.80
2018-12-13T07:00:33.778Z,65.90
2018-12-13T07:03:03.176Z,65.80
2018-12-13T07:05:33.057Z,66.40
2018-12-13T07:08:07.671Z,65.80
2018-12-13T07:10:34.176Z,65.80
2018-12-13T07:13:03.351Z,65.80
2018-12-13T07:15:32.337Z,65.90
2018-12-13T07:18:01.355Z,65.80
2018-12-13T07:20:30.539Z,65.90
2018-12-13T07:22:59.612Z,65.80
2018-12-13T07:25:28.925Z,65.80
2018-12-13T07:27:58.287Z,65.90
2018-12-13T07:30:27.447Z,66.00
2018-12-13T07:32:56.513Z,66.00
2018-12-13T07:35:25.590Z,66.20
2018-12-13T07:37:54.803Z,66.40
2018-12-13T07:40:23.897Z,66.50
2018-12-13T07:42:53.180Z,66.50
2018-12-13T07:45:22.431Z,67.30
2018-12-13T07:47:51.478Z,66.80
2018-12-13T07:50:20.459Z,66.80
2018-12-13T07:52:50.661Z,67.00
2018-12-13T07:55:19.696Z,66.90
2018-12-13T07:57:48.781Z,66.90
2018-12-13T08:00:17.841Z,67.00
2018-12-13T08:02:47.096Z,67.00
2018-12-13T08:05:16.450Z,66.80
2018-12-13T08:07:45.994Z,66.90
2018-12-13T08:10:15.361Z,66.80
2018-12-13T08:12:45.265Z,66.70
2018-12-13T08:15:14.983Z,66.60
2018-12-13T08:17:46.569Z,66.50
2018-12-13T08:20:19.969Z,66.40
2018-12-13T08:22:50.175Z,66.30
2018-12-13T08:25:19.393Z,66.30
2018-12-13T08:27:48.729Z,66.50
2018-12-13T08:30:17.951Z,66.20
2018-12-13T08:32:47.039Z,66.00
2018-12-13T08:35:16.060Z,66.00
2018-12-13T08:37:45.217Z,65.90
2018-12-13T08:40:14.370Z,65.90
2018-12-13T08:42:43.405Z,66.00
2018-12-13T08:45:12.502Z,66.00
2018-12-13T08:47:41.461Z,65.90
2018-12-13T08:50:10.609Z,65.80
2018-12-13T08:52:39.788Z,65.80
2018-12-13T08:55:08.957Z,65.70
2018-12-13T08:57:38.012Z,65.70
2018-12-13T09:00:08.686Z,65.80
2018-12-13T09:02:41.903Z,66.10
2018-12-13T09:05:11.171Z,65.40
2018-12-13T09:07:40.271Z,65.10
2018-12-13T09:10:10.431Z,64.70
2018-12-13T09:12:39.866Z,64.60
2018-12-13T09:15:10.054Z,64.50
2018-12-13T09:17:47.139Z,64.30
2018-12-13T09:20:16.131Z,64.30
2018-12-13T09:22:46.602Z,64.20
2018-12-13T09:25:15.895Z,64.10
2018-12-13T09:27:45.046Z,63.70
2018-12-13T09:30:14.534Z,63.70
2018-12-13T09:32:43.779Z,63.60
2018-12-13T09:35:12.953Z,63.30
2018-12-13T09:37:47.563Z,63.10
2018-12-13T09:40:13.413Z,63.10
2018-12-13T09:42:42.600Z,63.00
2018-12-13T09:45:11.625Z,62.80
2018-12-13T09:47:41.524Z,62.70
2018-12-13T09:50:10.789Z,62.60
2018-12-13T09:52:40.567Z,62.70
2018-12-13T09:55:10.035Z,63.10
2018-12-13T09:57:39.642Z,62.30
2018-12-13T10:00:10.821Z,62.30
2018-12-13T10:02:44.250Z,62.10
2018-12-13T10:05:21.660Z,62.10
2018-12-13T10:10:47.519Z,62.10
2018-12-13T10:13:17.426Z,61.90
2018-12-13T10:15:46.838Z,61.90
2018-12-13T10:18:16.408Z,61.70
2018-12-13T10:20:45.842Z,61.70
2018-12-13T10:23:15.269Z,61.50
2018-12-13T10:25:45.709Z,61.40
2018-12-13T10:28:14.944Z,61.30
2018-12-13T10:30:44.359Z,61.20
2018-12-13T10:33:14.479Z,61.20
2018-12-13T10:35:44.642Z,61.00
2018-12-13T10:38:13.911Z,60.70
2018-12-13T10:40:43.510Z,60.50
2018-12-13T10:43:12.784Z,60.50
2018-12-13T10:45:42.147Z,60.50
2018-12-13T10:48:11.308Z,60.30
2018-12-13T10:50:40.450Z,60.20
2018-12-13T10:53:10.143Z,60.20
2018-12-13T10:55:39.205Z,60.20
2018-12-13T10:58:09.291Z,60.20
2018-12-13T11:00:42.784Z,60.20
2018-12-13T11:03:23.042Z,60.00
2018-12-13T11:05:52.607Z,59.90
2018-12-13T11:08:22.398Z,59.70
2018-12-13T11:10:51.621Z,59.80
2018-12-13T11:13:20.900Z,59.80
2018-12-13T11:15:50.807Z,59.80
2018-12-13T11:18:19.982Z,59.80
2018-12-13T11:20:49.377Z,59.50
2018-12-13T11:23:18.890Z,59.40
2018-12-13T11:25:48.436Z,59.40
2018-12-13T11:28:28.948Z,59.30
2018-12-13T11:30:58.389Z,59.30
2018-12-13T11:33:27.443Z,59.40
2018-12-13T11:35:57.088Z,59.30
2018-12-13T11:38:26.458Z,59.40
2018-12-13T11:40:56.589Z,59.30
2018-12-13T11:43:25.811Z,59.40
2018-12-13T11:45:55.287Z,59.50
2018-12-13T11:48:24.732Z,59.50
2018-12-13T11:50:54.339Z,59.40
2018-12-13T11:53:23.593Z,59.50
2018-12-13T11:55:52.928Z,60.00
2018-12-13T11:58:22.016Z,59.40
2018-12-13T12:00:51.247Z,59.30
2018-12-13T12:03:20.578Z,59.30
2018-12-13T12:05:52.031Z,59.30
2018-12-13T12:08:21.382Z,59.40
2018-12-13T12:10:50.489Z,59.40
2018-12-13T12:13:19.466Z,59.40
2018-12-13T12:15:48.718Z,59.40
2018-12-13T12:18:17.830Z,59.40
2018-12-13T12:20:47.011Z,59.30
2018-12-13T12:23:16.207Z,59.30
2018-12-13T12:25:46.074Z,59.30
2018-12-13T12:28:15.057Z,59.30
2018-12-13T12:30:44.155Z,59.30
2018-12-13T12:33:13.300Z,59.30
2018-12-13T12:35:42.391Z,59.30
2018-12-13T12:38:11.506Z,59.30
2018-12-13T12:40:40.544Z,59.30
2018-12-13T12:43:10.566Z,59.30
2018-12-13T12:45:39.882Z,59.40
2018-12-13T12:48:09.169Z,59.40
2018-12-13T12:50:38.948Z,59.30
2018-12-13T12:53:08.400Z,59.20
2018-12-13T12:55:37.797Z,59.10
2018-12-13T12:58:07.112Z,59.10
2018-12-13T13:00:36.449Z,59.00
2018-12-13T13:03:05.640Z,59.00
2018-12-13T13:05:34.857Z,59.00
2018-12-13T13:08:04.016Z,59.10
2018-12-13T13:10:33.352Z,59.10
2018-12-13T13:13:03.375Z,59.10
2018-12-13T13:15:32.556Z,59.20
2018-12-13T13:18:01.622Z,59.30
2018-12-13T13:20:30.912Z,59.30
2018-12-13T13:23:00.019Z,59.30
2018-12-13T13:25:29.315Z,59.30
2018-12-13T13:27:58.926Z,59.40
2018-12-13T13:30:29.001Z,59.40
2018-12-13T13:32:58.206Z,59.20
2018-12-13T13:35:32.124Z,59.20
2018-12-13T13:38:01.181Z,59.10
2018-12-13T13:40:30.383Z,59.00
2018-12-13T13:42:59.869Z,59.60
2018-12-13T13:45:30.037Z,59.00
2018-12-13T13:47:59.125Z,59.00
2018-12-13T13:50:28.863Z,58.90
2018-12-13T13:52:57.950Z,58.90
2018-12-13T13:55:27.297Z,58.90
2018-12-13T13:57:57.359Z,59.00
2018-12-13T14:00:26.610Z,58.80
2018-12-13T14:02:55.887Z,58.80
2018-12-13T14:05:25.170Z,58.80
2018-12-13T14:07:54.599Z,58.90
2018-12-13T14:10:30.794Z,59.00
2018-12-13T14:13:07.359Z,59.00
2018-12-13T14:15:40.401Z,59.00
2018-12-13T14:18:12.878Z,59.10
2018-12-13T14:20:42.278Z,59.00
2018-12-13T14:23:11.492Z,59.10
2018-12-13T14:25:40.592Z,59.20
2018-12-13T14:28:10.107Z,59.10
2018-12-13T14:30:39.128Z,59.10
2018-12-13T14:33:08.445Z,59.30
2018-12-13T14:35:37.965Z,59.30
2018-12-13T14:38:07.187Z,59.40
2018-12-13T14:40:36.455Z,59.60
2018-12-13T14:43:05.751Z,59.60
2018-12-13T14:45:35.582Z,59.60
2018-12-13T14:48:04.966Z,59.60
2018-12-13T14:50:34.364Z,59.60
2018-12-13T14:53:04.161Z,59.70
2018-12-13T14:55:33.551Z,59.80
2018-12-13T14:58:04.001Z,59.90
2018-12-13T15:00:33.500Z,59.90
2018-12-13T15:03:02.775Z,60.00
2018-12-13T15:05:32.273Z,60.00
2018-12-13T15:08:01.553Z,60.10
2018-12-13T15:10:30.876Z,60.10
2018-12-13T15:13:00.223Z,60.00
2018-12-13T15:15:29.882Z,60.10
2018-12-13T15:17:59.080Z,60.00
2018-12-13T15:20:28.335Z,60.00
2018-12-13T15:23:08.848Z,60.10
2018-12-13T15:25:38.742Z,60.20
2018-12-13T15:28:08.091Z,60.10
2018-12-13T15:30:37.448Z,60.00
2018-12-13T15:33:11.248Z,60.10
2018-12-13T15:35:40.574Z,61.10
2018-12-13T15:38:10.662Z,60.20
2018-12-13T15:40:40.050Z,60.20
2018-12-13T15:43:09.924Z,60.10
2018-12-13T15:45:39.601Z,60.00
2018-12-13T15:48:09.143Z,60.00
2018-12-13T15:50:41.465Z,60.80
2018-12-13T15:53:23.214Z,59.90
2018-12-13T15:55:53.766Z,60.00
2018-12-13T15:58:24.117Z,60.00
2018-12-13T16:00:53.712Z,60.00
2018-12-13T16:03:23.114Z,60.10
2018-12-13T16:05:52.351Z,60.00
2018-12-13T16:08:22.241Z,60.10
2018-12-13T16:10:57.019Z,60.00
2018-12-13T16:13:33.367Z,60.00
2018-12-13T16:16:02.878Z,60.20
2018-12-13T16:18:37.004Z,60.10
2018-12-13T16:21:13.506Z,60.10
2018-12-13T16:23:48.710Z,60.10
2018-12-13T16:26:26.648Z,60.10
2018-12-13T16:29:06.943Z,60.00
2018-12-13T16:31:50.390Z,60.10
2018-12-13T16:34:21.671Z,60.10
2018-12-13T16:36:51.262Z,60.10
2018-12-13T16:39:28.045Z,60.10
2018-12-13T16:42:05.588Z,60.00
2018-12-13T16:44:40.628Z,60.00
2018-12-13T16:47:13.385Z,59.90
2018-12-13T16:49:56.866Z,59.90
2018-12-13T16:52:32.243Z,59.90
2018-12-13T16:55:22.968Z,59.90
2018-12-13T16:57:53.725Z,59.80
2018-12-13T17:00:23.237Z,59.70
2018-12-13T17:02:53.504Z,59.80
2018-12-13T17:05:32.566Z,59.90
2018-12-13T17:08:02.682Z,60.00
2018-12-13T17:10:35.119Z,60.20
2018-12-13T17:13:06.753Z,60.00
2018-12-13T17:15:42.765Z,59.90
2018-12-13T17:18:12.203Z,60.00
2018-12-13T17:20:41.541Z,60.10
2018-12-13T17:23:10.602Z,60.10
2018-12-13T17:25:49.590Z,60.10
2018-12-13T17:28:35.291Z,60.20
2018-12-13T17:31:04.595Z,60.20
2018-12-13T17:33:33.888Z,61.00
2018-12-13T17:36:03.680Z,60.30
2018-12-13T17:38:32.957Z,60.40
2018-12-13T17:41:02.219Z,60.50
2018-12-13T17:43:31.349Z,61.00
2018-12-13T17:46:00.715Z,60.70
2018-12-13T17:48:29.975Z,60.70
2018-12-13T17:50:59.137Z,60.90
2018-12-13T17:53:28.498Z,61.00
2018-12-13T17:55:58.682Z,61.00
2018-12-13T17:58:29.368Z,61.20
2018-12-13T18:00:59.031Z,61.20
2018-12-13T18:03:28.722Z,61.20
2018-12-13T18:05:58.330Z,61.30
2018-12-13T18:08:28.720Z,61.30
2018-12-13T18:10:58.037Z,61.20
2018-12-13T18:13:27.691Z,61.10
2018-12-13T18:15:57.780Z,61.00
2018-12-13T18:18:27.378Z,61.00
2018-12-13T18:20:57.550Z,61.00
2018-12-13T18:23:27.240Z,61.10
2018-12-13T18:25:56.488Z,61.00
2018-12-13T18:28:26.733Z,61.00
2018-12-13T18:30:56.406Z,61.10
2018-12-13T18:33:28.239Z,61.00
2018-12-13T18:35:58.398Z,61.00
2018-12-13T18:38:28.087Z,61.00
2018-12-13T18:40:58.441Z,61.00
2018-12-13T18:43:27.679Z,60.90
2018-12-13T18:45:57.222Z,60.80
2018-12-13T18:48:43.453Z,60.80
2018-12-13T18:51:13.666Z,60.70
2018-12-13T18:53:42.886Z,60.70
2018-12-13T18:56:24.016Z,60.80
2018-12-13T18:58:53.500Z,60.70
2018-12-13T19:01:23.027Z,60.60
2018-12-13T19:03:54.574Z,60.60
2018-12-13T19:06:27.456Z,60.60
2018-12-13T19:08:57.017Z,60.50
2018-12-13T19:11:32.632Z,60.50
2018-12-13T19:14:26.344Z,60.50
2018-12-13T19:16:59.366Z,60.50
2018-12-13T19:19:30.560Z,60.40
2018-12-13T19:24:37.553Z,60.40
2018-12-13T19:27:08.197Z,60.40
2018-12-13T19:29:54.120Z,60.20
2018-12-13T19:32:30.648Z,60.30
2018-12-13T19:35:12.338Z,60.30
2018-12-13T19:37:44.792Z,60.30
2018-12-13T19:40:17.784Z,60.20
2018-12-13T19:42:48.750Z,60.30
2018-12-13T19:45:22.259Z,60.30
2018-12-13T19:47:55.137Z,60.30
2018-12-13T19:53:23.801Z,60.20
2018-12-13T19:55:56.425Z,60.10
2018-12-13T19:58:54.180Z,60.10
2018-12-13T20:01:23.769Z,60.20
2018-12-13T20:04:11.076Z,60.20
2018-12-13T20:06:40.397Z,60.20
2018-12-13T20:09:10.315Z,60.00
2018-12-13T20:11:39.709Z,60.10
2018-12-13T20:14:09.841Z,61.00
2018-12-13T20:16:39.281Z,60.20
2018-12-13T20:19:08.963Z,60.20
2018-12-13T20:21:38.899Z,60.20
2018-12-13T20:24:08.508Z,60.10
2018-12-13T20:26:37.843Z,60.20
2018-12-13T20:29:07.840Z,60.30
2018-12-13T20:31:37.484Z,60.30
2018-12-13T20:34:06.827Z,60.30
2018-12-13T20:36:38.214Z,60.30
2018-12-13T20:39:09.801Z,60.30
2018-12-13T20:41:39.645Z,60.40
2018-12-13T20:44:25.033Z,60.30
2018-12-13T20:46:58.584Z,60.20
2018-12-13T20:49:37.005Z,60.30
2018-12-13T20:52:08.341Z,60.30
2018-12-13T20:54:39.907Z,60.20
2018-12-13T21:00:14.446Z,60.30
2018-12-13T21:02:49.190Z,60.40
2018-12-13T21:05:18.588Z,60.40
2018-12-13T21:07:53.875Z,60.40
2018-12-13T21:10:25.093Z,60.40
2018-12-13T21:13:05.071Z,60.40
2018-12-13T21:15:46.502Z,60.40
2018-12-13T21:18:16.065Z,60.40
2018-12-13T21:20:45.131Z,60.40
2018-12-13T21:23:14.634Z,60.40
2018-12-13T21:25:53.171Z,60.50
2018-12-13T21:28:22.404Z,60.40
2018-12-13T21:30:52.444Z,60.50
2018-12-13T21:33:21.627Z,60.50
2018-12-13T21:35:51.816Z,60.60
2018-12-13T21:38:21.091Z,60.60
2018-12-13T21:40:50.598Z,60.60
2018-12-13T21:43:24.137Z,60.60
2018-12-13T21:45:53.819Z,60.60
2018-12-13T21:48:35.980Z,60.60
2018-12-13T21:51:05.869Z,60.60
2018-12-13T21:53:35.340Z,60.60
2018-12-13T21:56:19.184Z,60.60
2018-12-13T21:58:48.589Z,60.60
2018-12-13T22:01:17.846Z,60.60
2018-12-13T22:03:48.195Z,60.60
2018-12-13T22:06:20.487Z,60.60
2018-12-13T22:08:55.014Z,60.60
2018-12-13T22:11:27.389Z,60.60
2018-12-13T22:13:59.122Z,60.60
2018-12-13T22:16:32.737Z,60.70
2018-12-13T22:19:05.922Z,60.60
2018-12-13T22:21:36.320Z,60.60
2018-12-13T22:24:07.824Z,60.70
2018-12-13T22:26:42.544Z,60.70
2018-12-13T22:29:11.778Z,60.60
2018-12-13T22:31:46.571Z,60.60
2018-12-13T22:34:17.130Z,60.60
2018-12-13T22:36:48.775Z,60.60
2018-12-13T22:39:17.934Z,60.70
2018-12-13T22:41:51.961Z,60.70
2018-12-13T22:44:22.985Z,60.70
2018-12-13T22:46:52.397Z,60.70
2018-12-13T22:49:21.603Z,60.80
2018-12-13T22:51:52.027Z,60.80
2018-12-13T22:54:23.673Z,60.80
2018-12-13T22:56:58.786Z,60.90
2018-12-13T22:59:31.296Z,60.70
2018-12-13T23:02:01.319Z,60.80
2018-12-13T23:04:30.604Z,60.80
2018-12-13T23:06:59.681Z,60.80
2018-12-13T23:12:06.241Z,60.80
2018-12-13T23:14:35.251Z,60.40
2018-12-13T23:17:04.706Z,60.70
2018-12-13T23:19:33.831Z,60.80
2018-12-13T23:22:02.878Z,60.80
2018-12-13T23:24:32.084Z,60.90
2018-12-13T23:27:01.084Z,60.90
2018-12-13T23:29:30.130Z,60.90
2018-12-13T23:31:59.227Z,61.00
2018-12-13T23:34:28.215Z,61.00
2018-12-13T23:36:57.662Z,60.90
2018-12-13T23:39:26.881Z,60.90
2018-12-13T23:41:56.089Z,60.90
2018-12-13T23:44:25.226Z,60.90
2018-12-13T23:46:54.387Z,61.00
2018-12-13T23:49:23.547Z,61.00
2018-12-13T23:51:52.675Z,61.00
2018-12-13T23:54:21.839Z,61.00
2018-12-13T23:56:51.176Z,61.10
2018-12-13T23:59:20.284Z,61.00
